sensor_id;sensor_type;location;lat;lon;timestamp;temperature;humidity
45906;DHT22;31619;49.008;12.106;2023-04-24T00:00:57;11.20;99.90
45906;DHT22;31619;49.008;12.106;2023-04-24T00:03:24;11.10;99.90
45906;DHT22;31619;49.008;12.106;2023-04-24T00:05:50;11.10;99.90
45906;DHT22;31619;49.008;12.106;2023-04-24T00:08:16;11.00;99.90
45906;DHT22;31619;49.008;12.106;2023-04-24T00:10:42;11.10;99.90
45906;DHT22;31619;49.008;12.106;2023-04-24T00:13:08;11.20;99.90
45906;DHT22;31619;49.008;12.106;2023-04-24T00:15:34;11.10;99.90
45906;DHT22;31619;49.008;12.106;2023-04-24T00:17:59;11.10;99.90
45906;DHT22;31619;49.008;12.106;2023-04-24T00:20:27;11.10;99.90
45906;DHT22;31619;49.008;12.106;2023-04-24T00:22:55;11.00;99.90
45906;DHT22;31619;49.008;12.106;2023-04-24T00:25:21;11.00;99.90
45906;DHT22;31619;49.008;12.106;2023-04-24T00:27:46;11.00;99.90
45906;DHT22;31619;49.008;12.106;2023-04-24T00:30:12;11.00;99.90
45906;DHT22;31619;49.008;12.106;2023-04-24T00:32:38;11.00;99.90
45906;DHT22;31619;49.008;12.106;2023-04-24T00:35:04;11.10;99.90
45906;DHT22;31619;49.008;12.106;2023-04-24T00:37:31;11.10;99.90
45906;DHT22;31619;49.008;12.106;2023-04-24T00:39:56;11.10;99.90
45906;DHT22;31619;49.008;12.106;2023-04-24T00:42:22;11.20;99.90
45906;DHT22;31619;49.008;12.106;2023-04-24T00:44:48;11.30;99.90
45906;DHT22;31619;49.008;12.106;2023-04-24T00:47:14;11.30;99.90
45906;DHT22;31619;49.008;12.106;2023-04-24T00:49:40;11.30;99.90
45906;DHT22;31619;49.008;12.106;2023-04-24T00:52:05;11.30;99.90
45906;DHT22;31619;49.008;12.106;2023-04-24T00:54:34;11.30;99.90
45906;DHT22;31619;49.008;12.106;2023-04-24T00:57:04;11.20;99.90
45906;DHT22;31619;49.008;12.106;2023-04-24T00:59:30;11.20;99.90
45906;DHT22;31619;49.008;12.106;2023-04-24T01:01:57;11.20;99.90
45906;DHT22;31619;49.008;12.106;2023-04-24T01:04:24;11.30;99.90
45906;DHT22;31619;49.008;12.106;2023-04-24T01:06:50;11.20;99.90
45906;DHT22;31619;49.008;12.106;2023-04-24T01:09:16;11.30;99.90
45906;DHT22;31619;49.008;12.106;2023-04-24T01:11:42;11.30;99.90
45906;DHT22;31619;49.008;12.106;2023-04-24T01:14:08;11.30;99.90
45906;DHT22;31619;49.008;12.106;2023-04-24T01:16:35;11.30;99.90
45906;DHT22;31619;49.008;12.106;2023-04-24T01:19:01;11.30;99.90
45906;DHT22;31619;49.008;12.106;2023-04-24T01:21:30;11.30;99.90
45906;DHT22;31619;49.008;12.106;2023-04-24T01:24:00;11.40;99.90
45906;DHT22;31619;49.008;12.106;2023-04-24T01:26:25;11.40;99.90
45906;DHT22;31619;49.008;12.106;2023-04-24T01:28:51;11.40;99.90
45906;DHT22;31619;49.008;12.106;2023-04-24T01:31:18;11.40;99.90
45906;DHT22;31619;49.008;12.106;2023-04-24T01:33:43;11.30;99.90
45906;DHT22;31619;49.008;12.106;2023-04-24T01:36:13;11.30;99.90
45906;DHT22;31619;49.008;12.106;2023-04-24T01:38:39;11.30;99.90
45906;DHT22;31619;49.008;12.106;2023-04-24T01:41:05;11.30;99.90
45906;DHT22;31619;49.008;12.106;2023-04-24T01:43:31;11.30;99.90
45906;DHT22;31619;49.008;12.106;2023-04-24T01:45:57;11.20;99.90
45906;DHT22;31619;49.008;12.106;2023-04-24T01:48:23;11.30;99.90
45906;DHT22;31619;49.008;12.106;2023-04-24T01:50:48;11.20;99.90
45906;DHT22;31619;49.008;12.106;2023-04-24T01:53:14;11.20;99.90
45906;DHT22;31619;49.008;12.106;2023-04-24T01:55:40;11.20;99.90
45906;DHT22;31619;49.008;12.106;2023-04-24T01:58:06;11.10;99.90
45906;DHT22;31619;49.008;12.106;2023-04-24T02:00:33;11.10;99.90
45906;DHT22;31619;49.008;12.106;2023-04-24T02:02:58;11.10;99.90
45906;DHT22;31619;49.008;12.106;2023-04-24T02:05:24;11.10;99.90
45906;DHT22;31619;49.008;12.106;2023-04-24T02:07:49;11.20;99.90
45906;DHT22;31619;49.008;12.106;2023-04-24T02:10:15;11.30;99.90
45906;DHT22;31619;49.008;12.106;2023-04-24T02:12:41;11.20;99.90
45906;DHT22;31619;49.008;12.106;2023-04-24T02:15:06;11.10;99.90
45906;DHT22;31619;49.008;12.106;2023-04-24T02:17:32;11.10;99.90
45906;DHT22;31619;49.008;12.106;2023-04-24T02:19:58;11.20;99.90
45906;DHT22;31619;49.008;12.106;2023-04-24T02:22:23;11.20;99.90
45906;DHT22;31619;49.008;12.106;2023-04-24T02:24:49;11.20;99.90
45906;DHT22;31619;49.008;12.106;2023-04-24T02:27:15;11.10;99.90
45906;DHT22;31619;49.008;12.106;2023-04-24T02:29:40;11.10;99.90
45906;DHT22;31619;49.008;12.106;2023-04-24T02:32:06;11.00;99.90
45906;DHT22;31619;49.008;12.106;2023-04-24T02:34:32;11.00;99.90
45906;DHT22;31619;49.008;12.106;2023-04-24T02:36:57;11.00;99.90
45906;DHT22;31619;49.008;12.106;2023-04-24T02:39:23;10.90;99.90
45906;DHT22;31619;49.008;12.106;2023-04-24T02:41:48;11.00;99.90
45906;DHT22;31619;49.008;12.106;2023-04-24T02:44:14;11.00;99.90
45906;DHT22;31619;49.008;12.106;2023-04-24T02:46:40;11.00;99.90
45906;DHT22;31619;49.008;12.106;2023-04-24T02:49:07;11.00;99.90
45906;DHT22;31619;49.008;12.106;2023-04-24T02:51:32;11.00;99.90
45906;DHT22;31619;49.008;12.106;2023-04-24T02:53:58;11.00;99.90
45906;DHT22;31619;49.008;12.106;2023-04-24T02:56:24;11.00;99.90
45906;DHT22;31619;49.008;12.106;2023-04-24T02:58:49;11.00;99.90
45906;DHT22;31619;49.008;12.106;2023-04-24T03:01:15;11.00;99.90
45906;DHT22;31619;49.008;12.106;2023-04-24T03:03:41;11.00;99.90
45906;DHT22;31619;49.008;12.106;2023-04-24T03:06:06;10.90;99.90
45906;DHT22;31619;49.008;12.106;2023-04-24T03:08:33;10.90;99.90
45906;DHT22;31619;49.008;12.106;2023-04-24T03:10:59;10.80;99.90
45906;DHT22;31619;49.008;12.106;2023-04-24T03:13:25;10.80;99.90
45906;DHT22;31619;49.008;12.106;2023-04-24T03:15:51;10.90;99.90
45906;DHT22;31619;49.008;12.106;2023-04-24T03:18:17;10.80;99.90
45906;DHT22;31619;49.008;12.106;2023-04-24T03:20:44;10.90;99.90
45906;DHT22;31619;49.008;12.106;2023-04-24T03:23:10;10.80;99.90
45906;DHT22;31619;49.008;12.106;2023-04-24T03:25:36;10.70;99.90
45906;DHT22;31619;49.008;12.106;2023-04-24T03:28:01;10.70;99.90
45906;DHT22;31619;49.008;12.106;2023-04-24T03:30:27;10.70;99.90
45906;DHT22;31619;49.008;12.106;2023-04-24T03:32:53;10.70;99.90
45906;DHT22;31619;49.008;12.106;2023-04-24T03:35:18;10.70;99.90
45906;DHT22;31619;49.008;12.106;2023-04-24T03:37:44;10.70;99.90
45906;DHT22;31619;49.008;12.106;2023-04-24T03:40:10;10.70;99.90
45906;DHT22;31619;49.008;12.106;2023-04-24T03:42:36;10.60;99.90
45906;DHT22;31619;49.008;12.106;2023-04-24T03:45:01;10.50;99.90
45906;DHT22;31619;49.008;12.106;2023-04-24T03:47:27;10.50;99.90
45906;DHT22;31619;49.008;12.106;2023-04-24T03:49:52;10.40;99.90
45906;DHT22;31619;49.008;12.106;2023-04-24T03:52:19;10.40;99.90
45906;DHT22;31619;49.008;12.106;2023-04-24T03:54:45;10.40;99.90
45906;DHT22;31619;49.008;12.106;2023-04-24T03:57:10;10.40;99.90
45906;DHT22;31619;49.008;12.106;2023-04-24T03:59:36;10.40;99.90
45906;DHT22;31619;49.008;12.106;2023-04-24T04:02:02;10.30;99.90
45906;DHT22;31619;49.008;12.106;2023-04-24T04:04:27;10.40;99.90
45906;DHT22;31619;49.008;12.106;2023-04-24T04:06:53;10.30;99.90
45906;DHT22;31619;49.008;12.106;2023-04-24T04:09:18;10.20;99.90
45906;DHT22;31619;49.008;12.106;2023-04-24T04:11:44;10.30;99.90
45906;DHT22;31619;49.008;12.106;2023-04-24T04:14:10;10.20;99.90
45906;DHT22;31619;49.008;12.106;2023-04-24T04:16:36;10.20;99.90
45906;DHT22;31619;49.008;12.106;2023-04-24T04:19:02;10.20;99.90
45906;DHT22;31619;49.008;12.106;2023-04-24T04:21:28;10.30;99.90
45906;DHT22;31619;49.008;12.106;2023-04-24T04:23:54;10.30;99.90
45906;DHT22;31619;49.008;12.106;2023-04-24T04:26:20;10.30;99.90
45906;DHT22;31619;49.008;12.106;2023-04-24T04:28:46;10.30;99.90
45906;DHT22;31619;49.008;12.106;2023-04-24T04:31:13;10.40;99.90
45906;DHT22;31619;49.008;12.106;2023-04-24T04:33:38;10.40;99.90
45906;DHT22;31619;49.008;12.106;2023-04-24T04:36:05;10.40;99.90
45906;DHT22;31619;49.008;12.106;2023-04-24T04:38:30;10.40;99.90
45906;DHT22;31619;49.008;12.106;2023-04-24T04:40:56;10.40;99.90
45906;DHT22;31619;49.008;12.106;2023-04-24T04:43:25;10.40;99.90
45906;DHT22;31619;49.008;12.106;2023-04-24T04:45:51;10.40;99.90
45906;DHT22;31619;49.008;12.106;2023-04-24T04:48:17;10.50;99.90
45906;DHT22;31619;49.008;12.106;2023-04-24T04:50:44;10.40;99.90
45906;DHT22;31619;49.008;12.106;2023-04-24T04:53:10;10.50;99.90
45906;DHT22;31619;49.008;12.106;2023-04-24T04:55:37;10.50;99.90
45906;DHT22;31619;49.008;12.106;2023-04-24T04:58:02;10.60;99.90
45906;DHT22;31619;49.008;12.106;2023-04-24T05:00:28;10.50;99.90
45906;DHT22;31619;49.008;12.106;2023-04-24T05:02:59;10.50;99.90
45906;DHT22;31619;49.008;12.106;2023-04-24T05:05:24;10.50;99.90
45906;DHT22;31619;49.008;12.106;2023-04-24T05:07:50;10.50;99.90
45906;DHT22;31619;49.008;12.106;2023-04-24T05:10:16;10.60;99.90
45906;DHT22;31619;49.008;12.106;2023-04-24T05:12:41;10.60;99.90
45906;DHT22;31619;49.008;12.106;2023-04-24T05:15:07;10.60;99.90
45906;DHT22;31619;49.008;12.106;2023-04-24T05:17:33;10.60;99.90
45906;DHT22;31619;49.008;12.106;2023-04-24T05:19:58;10.60;99.90
45906;DHT22;31619;49.008;12.106;2023-04-24T05:22:24;10.60;99.90
45906;DHT22;31619;49.008;12.106;2023-04-24T05:24:50;10.60;99.90
45906;DHT22;31619;49.008;12.106;2023-04-24T05:27:15;10.70;99.90
45906;DHT22;31619;49.008;12.106;2023-04-24T05:29:41;10.80;99.90
45906;DHT22;31619;49.008;12.106;2023-04-24T05:32:06;10.90;99.90
45906;DHT22;31619;49.008;12.106;2023-04-24T05:34:32;10.90;99.90
45906;DHT22;31619;49.008;12.106;2023-04-24T05:36:58;10.90;99.90
45906;DHT22;31619;49.008;12.106;2023-04-24T05:39:23;10.90;99.90
45906;DHT22;31619;49.008;12.106;2023-04-24T05:41:50;10.90;99.90
45906;DHT22;31619;49.008;12.106;2023-04-24T05:44:16;11.00;99.90
45906;DHT22;31619;49.008;12.106;2023-04-24T05:46:41;11.10;99.90
45906;DHT22;31619;49.008;12.106;2023-04-24T05:49:07;11.10;99.90
45906;DHT22;31619;49.008;12.106;2023-04-24T05:51:33;11.00;99.90
45906;DHT22;31619;49.008;12.106;2023-04-24T05:53:58;11.00;99.90
45906;DHT22;31619;49.008;12.106;2023-04-24T05:56:24;11.00;99.90
45906;DHT22;31619;49.008;12.106;2023-04-24T05:58:49;11.10;99.90
45906;DHT22;31619;49.008;12.106;2023-04-24T06:01:15;11.10;99.90
45906;DHT22;31619;49.008;12.106;2023-04-24T06:03:41;11.20;99.90
45906;DHT22;31619;49.008;12.106;2023-04-24T06:06:07;11.30;99.90
45906;DHT22;31619;49.008;12.106;2023-04-24T06:08:33;11.30;99.90
45906;DHT22;31619;49.008;12.106;2023-04-24T06:10:59;11.50;99.90
45906;DHT22;31619;49.008;12.106;2023-04-24T06:13:25;11.60;99.90
45906;DHT22;31619;49.008;12.106;2023-04-24T06:15:52;11.60;99.90
45906;DHT22;31619;49.008;12.106;2023-04-24T06:18:18;11.70;99.90
45906;DHT22;31619;49.008;12.106;2023-04-24T06:20:44;11.80;99.90
45906;DHT22;31619;49.008;12.106;2023-04-24T06:23:10;11.90;99.90
45906;DHT22;31619;49.008;12.106;2023-04-24T06:25:35;12.00;99.90
45906;DHT22;31619;49.008;12.106;2023-04-24T06:28:01;12.00;99.90
45906;DHT22;31619;49.008;12.106;2023-04-24T06:30:27;12.10;99.90
45906;DHT22;31619;49.008;12.106;2023-04-24T06:32:53;12.20;99.90
45906;DHT22;31619;49.008;12.106;2023-04-24T06:35:19;12.20;99.90
45906;DHT22;31619;49.008;12.106;2023-04-24T06:37:45;12.30;99.90
45906;DHT22;31619;49.008;12.106;2023-04-24T06:40:11;12.40;99.90
45906;DHT22;31619;49.008;12.106;2023-04-24T06:42:37;12.40;99.90
45906;DHT22;31619;49.008;12.106;2023-04-24T06:45:03;12.60;99.90
45906;DHT22;31619;49.008;12.106;2023-04-24T06:47:29;12.80;99.90
45906;DHT22;31619;49.008;12.106;2023-04-24T06:49:55;13.10;99.90
45906;DHT22;31619;49.008;12.106;2023-04-24T06:52:21;13.10;99.90
45906;DHT22;31619;49.008;12.106;2023-04-24T06:54:46;13.40;99.90
45906;DHT22;31619;49.008;12.106;2023-04-24T06:57:12;13.50;99.90
45906;DHT22;31619;49.008;12.106;2023-04-24T06:59:38;13.40;99.90
45906;DHT22;31619;49.008;12.106;2023-04-24T07:02:04;13.40;99.90
45906;DHT22;31619;49.008;12.106;2023-04-24T07:04:30;13.40;99.90
45906;DHT22;31619;49.008;12.106;2023-04-24T07:06:56;13.40;99.90
45906;DHT22;31619;49.008;12.106;2023-04-24T07:09:24;13.60;99.90
45906;DHT22;31619;49.008;12.106;2023-04-24T07:11:51;13.70;99.90
45906;DHT22;31619;49.008;12.106;2023-04-24T07:14:17;13.70;99.90
45906;DHT22;31619;49.008;12.106;2023-04-24T07:16:43;13.80;99.90
45906;DHT22;31619;49.008;12.106;2023-04-24T07:19:09;13.90;99.90
45906;DHT22;31619;49.008;12.106;2023-04-24T07:21:34;13.90;99.90
45906;DHT22;31619;49.008;12.106;2023-04-24T07:24:00;14.00;99.90
45906;DHT22;31619;49.008;12.106;2023-04-24T07:26:27;14.00;99.90
45906;DHT22;31619;49.008;12.106;2023-04-24T07:28:53;14.00;99.90
45906;DHT22;31619;49.008;12.106;2023-04-24T07:31:19;14.00;99.90
45906;DHT22;31619;49.008;12.106;2023-04-24T07:33:45;14.20;99.90
45906;DHT22;31619;49.008;12.106;2023-04-24T07:36:11;14.40;99.90
45906;DHT22;31619;49.008;12.106;2023-04-24T07:38:47;14.60;99.90
45906;DHT22;31619;49.008;12.106;2023-04-24T07:41:13;14.80;99.90
45906;DHT22;31619;49.008;12.106;2023-04-24T07:43:39;14.90;99.90
45906;DHT22;31619;49.008;12.106;2023-04-24T07:46:06;15.10;99.90
45906;DHT22;31619;49.008;12.106;2023-04-24T07:48:31;15.30;99.90
45906;DHT22;31619;49.008;12.106;2023-04-24T07:50:57;15.80;99.90
45906;DHT22;31619;49.008;12.106;2023-04-24T07:53:22;15.90;99.90
45906;DHT22;31619;49.008;12.106;2023-04-24T07:55:48;15.90;99.90
45906;DHT22;31619;49.008;12.106;2023-04-24T07:58:14;16.00;99.90
45906;DHT22;31619;49.008;12.106;2023-04-24T08:00:40;15.90;99.90
45906;DHT22;31619;49.008;12.106;2023-04-24T08:03:06;16.00;99.90
45906;DHT22;31619;49.008;12.106;2023-04-24T08:05:31;16.00;99.90
45906;DHT22;31619;49.008;12.106;2023-04-24T08:07:58;15.70;99.90
45906;DHT22;31619;49.008;12.106;2023-04-24T08:10:24;15.60;99.90
45906;DHT22;31619;49.008;12.106;2023-04-24T08:12:50;15.60;99.90
45906;DHT22;31619;49.008;12.106;2023-04-24T08:15:16;15.80;99.90
45906;DHT22;31619;49.008;12.106;2023-04-24T08:17:42;16.20;99.90
45906;DHT22;31619;49.008;12.106;2023-04-24T08:20:08;16.30;99.90
45906;DHT22;31619;49.008;12.106;2023-04-24T08:22:39;16.60;99.90
45906;DHT22;31619;49.008;12.106;2023-04-24T08:25:05;16.70;99.90
45906;DHT22;31619;49.008;12.106;2023-04-24T08:27:31;16.90;99.90
45906;DHT22;31619;49.008;12.106;2023-04-24T08:29:57;17.20;99.90
45906;DHT22;31619;49.008;12.106;2023-04-24T08:32:24;17.40;99.90
45906;DHT22;31619;49.008;12.106;2023-04-24T08:34:50;17.90;99.90
45906;DHT22;31619;49.008;12.106;2023-04-24T08:37:17;18.40;99.90
45906;DHT22;31619;49.008;12.106;2023-04-24T08:39:43;16.90;99.90
45906;DHT22;31619;49.008;12.106;2023-04-24T08:42:09;14.90;99.90
45906;DHT22;31619;49.008;12.106;2023-04-24T08:44:36;13.50;99.90
45906;DHT22;31619;49.008;12.106;2023-04-24T08:47:02;12.40;99.90
45906;DHT22;31619;49.008;12.106;2023-04-24T08:49:29;11.60;99.90
45906;DHT22;31619;49.008;12.106;2023-04-24T08:51:55;11.30;99.90
45906;DHT22;31619;49.008;12.106;2023-04-24T08:54:21;11.20;99.90
45906;DHT22;31619;49.008;12.106;2023-04-24T08:56:48;11.10;99.90
45906;DHT22;31619;49.008;12.106;2023-04-24T08:59:15;11.20;99.90
45906;DHT22;31619;49.008;12.106;2023-04-24T09:01:41;11.30;99.90
45906;DHT22;31619;49.008;12.106;2023-04-24T09:04:08;11.50;99.90
45906;DHT22;31619;49.008;12.106;2023-04-24T09:06:38;11.60;99.90
45906;DHT22;31619;49.008;12.106;2023-04-24T09:09:04;12.10;99.90
45906;DHT22;31619;49.008;12.106;2023-04-24T09:11:31;12.50;99.90
45906;DHT22;31619;49.008;12.106;2023-04-24T09:13:58;12.70;99.90
45906;DHT22;31619;49.008;12.106;2023-04-24T09:16:25;12.80;99.90
45906;DHT22;31619;49.008;12.106;2023-04-24T09:18:51;13.00;99.90
45906;DHT22;31619;49.008;12.106;2023-04-24T09:21:18;13.40;99.90
45906;DHT22;31619;49.008;12.106;2023-04-24T09:23:45;14.20;99.90
45906;DHT22;31619;49.008;12.106;2023-04-24T09:26:11;15.20;99.90
45906;DHT22;31619;49.008;12.106;2023-04-24T09:28:38;16.20;99.90
45906;DHT22;31619;49.008;12.106;2023-04-24T09:31:05;17.00;99.90
45906;DHT22;31619;49.008;12.106;2023-04-24T09:33:31;17.80;99.90
45906;DHT22;31619;49.008;12.106;2023-04-24T09:35:56;17.80;99.90
45906;DHT22;31619;49.008;12.106;2023-04-24T09:38:36;17.20;99.90
45906;DHT22;31619;49.008;12.106;2023-04-24T09:41:05;16.40;99.90
45906;DHT22;31619;49.008;12.106;2023-04-24T09:43:31;15.60;99.90
45906;DHT22;31619;49.008;12.106;2023-04-24T09:45:58;16.20;99.90
45906;DHT22;31619;49.008;12.106;2023-04-24T09:48:35;18.00;99.90
45906;DHT22;31619;49.008;12.106;2023-04-24T09:51:02;20.00;99.90
45906;DHT22;31619;49.008;12.106;2023-04-24T09:53:31;19.90;99.90
45906;DHT22;31619;49.008;12.106;2023-04-24T09:56:17;20.30;99.90
45906;DHT22;31619;49.008;12.106;2023-04-24T09:58:43;20.70;99.90
45906;DHT22;31619;49.008;12.106;2023-04-24T10:01:12;20.10;99.90
45906;DHT22;31619;49.008;12.106;2023-04-24T10:03:38;18.60;99.90
45906;DHT22;31619;49.008;12.106;2023-04-24T10:06:07;18.20;99.90
45906;DHT22;31619;49.008;12.106;2023-04-24T10:08:36;17.60;99.90
45906;DHT22;31619;49.008;12.106;2023-04-24T10:11:02;16.90;99.90
45906;DHT22;31619;49.008;12.106;2023-04-24T10:13:28;16.40;99.90
45906;DHT22;31619;49.008;12.106;2023-04-24T10:15:54;15.70;99.90
45906;DHT22;31619;49.008;12.106;2023-04-24T10:18:21;15.10;99.90
45906;DHT22;31619;49.008;12.106;2023-04-24T10:20:47;15.10;99.90
45906;DHT22;31619;49.008;12.106;2023-04-24T10:23:13;15.50;99.90
45906;DHT22;31619;49.008;12.106;2023-04-24T10:25:39;15.50;99.90
45906;DHT22;31619;49.008;12.106;2023-04-24T10:28:05;15.80;99.90
45906;DHT22;31619;49.008;12.106;2023-04-24T10:30:33;15.80;99.90
45906;DHT22;31619;49.008;12.106;2023-04-24T10:33:03;16.00;99.90
45906;DHT22;31619;49.008;12.106;2023-04-24T10:35:34;16.10;99.90
45906;DHT22;31619;49.008;12.106;2023-04-24T10:38:06;15.90;99.90
45906;DHT22;31619;49.008;12.106;2023-04-24T10:40:36;15.90;99.90
45906;DHT22;31619;49.008;12.106;2023-04-24T10:43:06;15.60;99.90
45906;DHT22;31619;49.008;12.106;2023-04-24T10:45:35;15.60;99.90
45906;DHT22;31619;49.008;12.106;2023-04-24T10:48:05;15.30;99.90
45906;DHT22;31619;49.008;12.106;2023-04-24T10:50:46;15.50;99.90
45906;DHT22;31619;49.008;12.106;2023-04-24T10:53:18;15.70;99.90
45906;DHT22;31619;49.008;12.106;2023-04-24T10:55:50;16.20;99.40
45906;DHT22;31619;49.008;12.106;2023-04-24T10:58:17;17.00;98.00
45906;DHT22;31619;49.008;12.106;2023-04-24T11:00:58;17.50;98.40
45906;DHT22;31619;49.008;12.106;2023-04-24T11:03:29;18.90;94.50
45906;DHT22;31619;49.008;12.106;2023-04-24T11:06:01;19.20;93.00
45906;DHT22;31619;49.008;12.106;2023-04-24T11:08:38;19.30;91.20
45906;DHT22;31619;49.008;12.106;2023-04-24T11:11:14;18.90;91.00
45906;DHT22;31619;49.008;12.106;2023-04-24T11:16:23;17.60;91.90
45906;DHT22;31619;49.008;12.106;2023-04-24T11:22:00;16.30;93.50
45906;DHT22;31619;49.008;12.106;2023-04-24T11:27:18;16.00;96.30
45906;DHT22;31619;49.008;12.106;2023-04-24T11:33:02;15.60;99.90
45906;DHT22;31619;49.008;12.106;2023-04-24T11:37:48;14.00;99.90
45906;DHT22;31619;49.008;12.106;2023-04-24T11:40:15;13.50;99.90
45906;DHT22;31619;49.008;12.106;2023-04-24T11:42:46;13.10;99.90
45906;DHT22;31619;49.008;12.106;2023-04-24T11:45:14;12.60;99.90
45906;DHT22;31619;49.008;12.106;2023-04-24T11:47:40;12.30;99.90
45906;DHT22;31619;49.008;12.106;2023-04-24T11:50:11;12.10;99.90
45906;DHT22;31619;49.008;12.106;2023-04-24T11:53:00;12.10;99.90
45906;DHT22;31619;49.008;12.106;2023-04-24T11:55:28;12.60;99.90
45906;DHT22;31619;49.008;12.106;2023-04-24T11:58:00;13.00;99.90
45906;DHT22;31619;49.008;12.106;2023-04-24T12:00:31;14.30;99.90
45906;DHT22;31619;49.008;12.106;2023-04-24T12:03:09;16.40;99.90
45906;DHT22;31619;49.008;12.106;2023-04-24T12:05:35;19.40;99.90
45906;DHT22;31619;49.008;12.106;2023-04-24T12:08:01;20.70;94.10
45906;DHT22;31619;49.008;12.106;2023-04-24T12:10:29;22.30;84.00
45906;DHT22;31619;49.008;12.106;2023-04-24T12:12:56;23.40;77.90
45906;DHT22;31619;49.008;12.106;2023-04-24T12:15:23;23.50;73.90
45906;DHT22;31619;49.008;12.106;2023-04-24T12:17:51;23.20;71.20
45906;DHT22;31619;49.008;12.106;2023-04-24T12:20:23;23.60;68.60
45906;DHT22;31619;49.008;12.106;2023-04-24T12:22:51;22.10;68.30
45906;DHT22;31619;49.008;12.106;2023-04-24T12:25:19;20.20;77.30
45906;DHT22;31619;49.008;12.106;2023-04-24T12:27:46;19.10;78.30
45906;DHT22;31619;49.008;12.106;2023-04-24T12:30:16;18.60;78.00
45906;DHT22;31619;49.008;12.106;2023-04-24T12:32:47;17.90;80.70
45906;DHT22;31619;49.008;12.106;2023-04-24T12:35:13;18.10;81.80
45906;DHT22;31619;49.008;12.106;2023-04-24T12:37:42;18.60;77.80
45906;DHT22;31619;49.008;12.106;2023-04-24T12:40:11;20.10;75.50
45906;DHT22;31619;49.008;12.106;2023-04-24T12:42:45;22.30;70.30
45906;DHT22;31619;49.008;12.106;2023-04-24T12:45:12;22.80;64.40
45906;DHT22;31619;49.008;12.106;2023-04-24T12:47:38;22.70;64.90
45906;DHT22;31619;49.008;12.106;2023-04-24T12:50:04;22.60;65.50
45906;DHT22;31619;49.008;12.106;2023-04-24T12:52:31;23.00;62.10
45906;DHT22;31619;49.008;12.106;2023-04-24T12:54:58;21.90;65.00
45906;DHT22;31619;49.008;12.106;2023-04-24T12:57:26;21.00;65.60
45906;DHT22;31619;49.008;12.106;2023-04-24T12:59:54;21.80;65.10
45906;DHT22;31619;49.008;12.106;2023-04-24T13:02:20;22.40;63.50
45906;DHT22;31619;49.008;12.106;2023-04-24T13:04:47;22.20;62.10
45906;DHT22;31619;49.008;12.106;2023-04-24T13:07:14;21.30;64.20
45906;DHT22;31619;49.008;12.106;2023-04-24T13:09:40;20.10;64.80
45906;DHT22;31619;49.008;12.106;2023-04-24T13:12:07;19.20;66.90
45906;DHT22;31619;49.008;12.106;2023-04-24T13:14:33;18.40;71.40
45906;DHT22;31619;49.008;12.106;2023-04-24T13:16:59;17.00;73.70
45906;DHT22;31619;49.008;12.106;2023-04-24T13:19:25;16.50;76.40
45906;DHT22;31619;49.008;12.106;2023-04-24T13:21:52;16.30;75.30
45906;DHT22;31619;49.008;12.106;2023-04-24T13:24:18;16.00;75.30
45906;DHT22;31619;49.008;12.106;2023-04-24T13:26:43;16.10;76.70
45906;DHT22;31619;49.008;12.106;2023-04-24T13:29:09;16.80;73.70
45906;DHT22;31619;49.008;12.106;2023-04-24T13:31:35;19.90;70.00
45906;DHT22;31619;49.008;12.106;2023-04-24T13:34:02;22.20;64.10
45906;DHT22;31619;49.008;12.106;2023-04-24T13:36:28;21.70;61.00
45906;DHT22;31619;49.008;12.106;2023-04-24T13:38:54;21.20;60.20
45906;DHT22;31619;49.008;12.106;2023-04-24T13:41:19;21.20;61.20
45906;DHT22;31619;49.008;12.106;2023-04-24T13:43:45;20.80;62.60
45906;DHT22;31619;49.008;12.106;2023-04-24T13:46:11;20.80;61.70
45906;DHT22;31619;49.008;12.106;2023-04-24T13:48:36;19.60;64.30
45906;DHT22;31619;49.008;12.106;2023-04-24T13:51:02;19.80;64.70
45906;DHT22;31619;49.008;12.106;2023-04-24T13:53:27;20.60;62.70
45906;DHT22;31619;49.008;12.106;2023-04-24T13:55:53;20.30;59.50
45906;DHT22;31619;49.008;12.106;2023-04-24T13:58:19;19.60;58.20
45906;DHT22;31619;49.008;12.106;2023-04-24T14:00:44;18.60;60.50
45906;DHT22;31619;49.008;12.106;2023-04-24T14:03:10;18.00;61.60
45906;DHT22;31619;49.008;12.106;2023-04-24T14:05:36;17.10;65.20
45906;DHT22;31619;49.008;12.106;2023-04-24T14:08:02;17.30;67.40
45906;DHT22;31619;49.008;12.106;2023-04-24T14:10:27;17.70;66.50
45906;DHT22;31619;49.008;12.106;2023-04-24T14:12:53;18.70;64.60
45906;DHT22;31619;49.008;12.106;2023-04-24T14:15:19;19.20;64.40
45906;DHT22;31619;49.008;12.106;2023-04-24T14:17:45;19.10;63.60
45906;DHT22;31619;49.008;12.106;2023-04-24T14:20:12;18.40;66.70
45906;DHT22;31619;49.008;12.106;2023-04-24T14:22:38;17.40;69.30
45906;DHT22;31619;49.008;12.106;2023-04-24T14:25:05;16.90;71.30
45906;DHT22;31619;49.008;12.106;2023-04-24T14:27:32;16.60;72.10
45906;DHT22;31619;49.008;12.106;2023-04-24T14:29:59;16.80;72.50
45906;DHT22;31619;49.008;12.106;2023-04-24T14:32:25;17.80;71.40
45906;DHT22;31619;49.008;12.106;2023-04-24T14:34:51;18.90;68.40
45906;DHT22;31619;49.008;12.106;2023-04-24T14:37:16;20.00;69.20
45906;DHT22;31619;49.008;12.106;2023-04-24T14:39:42;22.00;64.10
45906;DHT22;31619;49.008;12.106;2023-04-24T14:42:08;23.20;59.10
45906;DHT22;31619;49.008;12.106;2023-04-24T14:44:33;22.10;58.90
45906;DHT22;31619;49.008;12.106;2023-04-24T14:46:59;20.60;58.60
45906;DHT22;31619;49.008;12.106;2023-04-24T14:49:25;18.80;61.60
45906;DHT22;31619;49.008;12.106;2023-04-24T14:51:51;17.90;62.30
45906;DHT22;31619;49.008;12.106;2023-04-24T14:54:17;17.00;64.50
45906;DHT22;31619;49.008;12.106;2023-04-24T14:56:42;16.50;66.80
45906;DHT22;31619;49.008;12.106;2023-04-24T14:59:10;16.20;67.80
45906;DHT22;31619;49.008;12.106;2023-04-24T15:01:35;16.00;69.50
45906;DHT22;31619;49.008;12.106;2023-04-24T15:04:01;15.50;70.80
45906;DHT22;31619;49.008;12.106;2023-04-24T15:06:29;15.10;73.60
45906;DHT22;31619;49.008;12.106;2023-04-24T15:08:56;15.50;73.70
45906;DHT22;31619;49.008;12.106;2023-04-24T15:11:22;16.50;72.10
45906;DHT22;31619;49.008;12.106;2023-04-24T15:13:48;18.10;68.50
45906;DHT22;31619;49.008;12.106;2023-04-24T15:16:14;19.00;63.80
45906;DHT22;31619;49.008;12.106;2023-04-24T15:18:39;18.00;65.00
45906;DHT22;31619;49.008;12.106;2023-04-24T15:21:05;17.00;67.00
45906;DHT22;31619;49.008;12.106;2023-04-24T15:23:31;16.60;68.50
45906;DHT22;31619;49.008;12.106;2023-04-24T15:25:57;15.60;72.80